Observations for MIDDLE WALLOP, United Kingdom (EGVP)

EGVP 200550Z AUTO 02004KT 9999 // NCD 09/06 Q1030   
EGVP 200450Z AUTO 33003KT 9000 // NCD 08/05 Q1030   
EGVP 200350Z AUTO 35004KT 9999 // NCD 08/05 Q1030   
EGVP 200250Z AUTO 03004KT 9999 // NCD 12/06 Q1030   
EGVP 200150Z AUTO 34003KT 9999 // NCD 10/05 Q1030   
EGVP 200050Z AUTO 30003KT 9999 // NCD 09/04 Q1030   
EGVP 192350Z AUTO 31002KT 9999 // NCD 11/05 Q1030   
EGVP 192250Z AUTO 04006KT 9999 // NCD 15/05 Q1030   
EGVP 192150Z AUTO 04005KT 9999 // NCD 16/04 Q1030   
EGVP 192050Z AUTO 05004KT 9999 // NCD 17/05 Q1030   
EGVP 191950Z AUTO 04005KT 9999 // NCD 19/06 Q1029   
EGVP 191850Z AUTO 03005KT 9999 // NCD 21/06 Q1029   
EGVP 191750Z AUTO 05007KT 9999 // NCD 22/05 Q1028   
EGVP 191650Z AUTO 05009KT 9999 // NCD 23/05 Q1028   
EGVP 191550Z AUTO 07007KT 9999 // NCD 23/07 Q1027   
EGVP 191450Z AUTO 06008KT 9999 // NCD 23/06 Q1027   
EGVP 191350Z AUTO 04009KT 9999 // NCD 22/08 Q1028   
EGVP 191250Z AUTO 07008KT 9999 // NCD 22/08 Q1028   
EGVP 191150Z AUTO 03008KT 9999 // FEW230/// 21/08 Q1028 
EGVP 191050Z AUTO 06010KT 9999 // NCD 19/08 Q1027   
EGVP 190950Z AUTO 04010KT 9999 // NCD 18/08 Q1027   
EGVP 190850Z AUTO 04010KT 9999 // NCD 15/07 Q1028   
EGVP 190750Z AUTO 05008KT 9000 // NCD 14/07 Q1027   
EGVP 190650Z AUTO 04007KT 9000 // NCD 12/06 Q1027   
EGVP 190550Z AUTO 05004KT 9999 // NCD 10/05 Q1026